Time;durP1;ratioP1;P1;durP2;ratioP2;P2;SDS_P1;SDS_P2;PMS_P1;PMS_P2;Temp;Humidity;BMP_temperature;BMP_pressure;BME280_temperature;BME280_humidity;BME280_pressure;Samples;Min_cycle;Max_cycle;Signal;HPM_P1;HPM_P2
2023/09/23 00:00:57;;;;;;;9.00;4.70;;;;;;;20.27;100.00;98028.39;110292;1245;59854;-68
2023/09/23 00:03:38;;;;;;;8.30;5.40;;;;;;;20.33;100.00;98039.75;110289;1244;66277;-68
2023/09/23 00:06:05;;;;;;;9.50;5.10;;;;;;;20.42;100.00;98046.60;110337;1244;59821;-68
2023/09/23 00:08:32;;;;;;;8.50;5.50;;;;;;;20.50;100.00;98053.73;110289;1244;64021;-68
2023/09/23 00:10:58;;;;;;;11.30;6.10;;;;;;;20.54;100.00;98064.48;110261;1244;60181;-68
2023/09/23 00:13:25;;;;;;;11.50;6.30;;;;;;;20.54;100.00;98074.94;110321;1244;60027;-68
2023/09/23 00:15:52;;;;;;;8.10;7.10;;;;;;;20.49;100.00;98082.67;110301;1245;66628;-68
2023/09/23 00:18:18;;;;;;;9.30;6.90;;;;;;;20.41;100.00;98086.98;110337;1244;59865;-68
2023/09/23 00:20:46;;;;;;;11.60;9.40;;;;;;;20.32;100.00;98085.23;110294;1245;60020;-68
2023/09/23 00:23:13;;;;;;;14.20;10.60;;;;;;;20.19;100.00;98095.91;110287;1244;59820;-68
2023/09/23 00:25:40;;;;;;;17.00;12.40;;;;;;;20.05;100.00;98100.70;110306;1245;59920;-68
2023/09/23 00:28:12;;;;;;;14.30;12.40;;;;;;;19.88;100.00;98101.52;110330;1245;66808;-68
2023/09/23 00:30:38;;;;;;;14.40;12.80;;;;;;;19.71;100.00;98103.25;110244;1245;61441;-68
2023/09/23 00:33:05;;;;;;;15.50;13.90;;;;;;;19.59;100.00;98102.95;110308;1244;59855;-68
2023/09/23 00:35:34;;;;;;;16.50;14.80;;;;;;;19.48;100.00;98103.61;110293;1244;59746;-68
2023/09/23 00:38:01;;;;;;;16.60;14.70;;;;;;;19.39;100.00;98101.13;110274;1244;59779;-68
2023/09/23 00:40:32;;;;;;;16.90;15.20;;;;;;;19.30;100.00;98106.91;110274;1244;66556;-68
2023/09/23 00:43:17;;;;;;;16.00;14.50;;;;;;;19.21;100.00;98110.07;110308;1244;60087;-68
2023/09/23 00:45:48;;;;;;;15.70;14.20;;;;;;;19.14;100.00;98112.21;110260;1245;62928;-68
2023/09/23 00:48:18;;;;;;;17.80;16.00;;;;;;;19.06;100.00;98105.30;110286;1244;59760;-68
2023/09/23 00:50:46;;;;;;;18.20;15.80;;;;;;;18.97;100.00;98108.27;110333;1245;59778;-68
2023/09/23 00:53:13;;;;;;;21.20;19.00;;;;;;;18.86;100.00;98112.20;110319;1244;66922;-68
2023/09/23 00:55:42;;;;;;;20.60;18.40;;;;;;;18.76;100.00;98125.04;110311;1244;59773;-68
2023/09/23 00:58:14;;;;;;;21.90;18.80;;;;;;;18.65;100.00;98131.08;110313;1244;63375;-68
2023/09/23 01:00:43;;;;;;;25.20;22.00;;;;;;;18.52;100.00;98125.42;110279;1244;59772;-68
2023/09/23 01:03:10;;;;;;;26.20;21.30;;;;;;;18.41;100.00;98128.98;110292;1244;59955;-68
2023/09/23 01:05:39;;;;;;;22.40;20.00;;;;;;;18.31;100.00;98129.37;110290;1244;66881;-68
2023/09/23 01:08:18;;;;;;;23.40;20.20;;;;;;;18.21;100.00;98132.84;110305;1249;59848;-68
2023/09/23 01:10:45;;;;;;;24.00;19.40;;;;;;;18.10;100.00;98136.03;110299;1244;63011;-68
2023/09/23 01:13:12;;;;;;;24.30;21.60;;;;;;;18.01;100.00;98143.84;110310;1245;59741;-68
2023/09/23 01:15:41;;;;;;;22.00;19.50;;;;;;;17.95;100.00;98144.05;110279;1245;59828;-69
2023/09/23 01:18:08;;;;;;;23.40;19.40;;;;;;;17.89;100.00;98141.59;110268;1245;66526;-68
2023/09/23 01:20:35;;;;;;;22.60;19.10;;;;;;;17.84;100.00;98144.02;110282;1244;60134;-68
2023/09/23 01:23:04;;;;;;;18.00;16.10;;;;;;;17.78;100.00;98147.54;110257;1244;64156;-68
2023/09/23 01:25:30;;;;;;;16.80;15.10;;;;;;;17.73;100.00;98153.99;110254;1247;59723;-68
2023/09/23 01:27:57;;;;;;;17.90;14.90;;;;;;;17.69;100.00;98159.63;110281;1244;59801;-68
2023/09/23 01:30:24;;;;;;;17.30;15.50;;;;;;;17.66;100.00;98166.42;110100;1244;60191;-68
2023/09/23 01:32:52;;;;;;;21.90;19.10;;;;;;;17.62;100.00;98169.77;110273;1244;60055;-68
2023/09/23 01:35:20;;;;;;;23.40;20.90;;;;;;;17.54;100.00;98173.42;110281;1244;63839;-68
2023/09/23 01:37:48;;;;;;;23.90;21.40;;;;;;;17.46;100.00;98164.77;110275;1249;59853;-68
2023/09/23 01:40:18;;;;;;;27.80;24.30;;;;;;;17.41;100.00;98164.52;110031;1244;59808;-68
2023/09/23 01:42:46;;;;;;;27.60;23.60;;;;;;;17.38;100.00;98162.05;110274;1244;66868;-68
2023/09/23 01:45:13;;;;;;;25.10;21.40;;;;;;;17.35;100.00;98166.36;110314;1249;60550;-68
2023/09/23 01:47:43;;;;;;;27.20;22.80;;;;;;;17.32;100.00;98165.92;110258;1245;64048;-68
2023/09/23 01:50:11;;;;;;;22.60;20.10;;;;;;;17.29;100.00;98165.25;110297;1245;59771;-68
2023/09/23 01:52:40;;;;;;;24.10;21.30;;;;;;;17.21;100.00;98175.93;110266;1245;59821;-68
2023/09/23 01:55:10;;;;;;;22.90;20.50;;;;;;;17.18;100.00;98181.18;110302;1244;65597;-68
2023/09/23 01:57:36;;;;;;;19.10;17.30;;;;;;;17.15;100.00;98185.92;110292;1244;60200;-68
2023/09/23 02:00:32;;;;;;;19.10;17.30;;;;;;;17.10;100.00;98188.39;109852;1245;59805;-68
2023/09/23 02:02:58;;;;;;;14.40;13.10;;;;;;;17.05;100.00;98192.95;110242;1247;59838;-68
2023/09/23 02:05:29;;;;;;;12.50;11.10;;;;;;;17.01;100.00;98199.95;110035;1244;59683;-68
2023/09/23 02:07:55;;;;;;;10.60;9.50;;;;;;;17.00;100.00;98203.74;110273;1244;66504;-68
2023/09/23 02:10:24;;;;;;;10.80;9.80;;;;;;;16.96;100.00;98202.89;110253;1244;61316;-68
2023/09/23 02:12:50;;;;;;;10.10;9.20;;;;;;;16.89;100.00;98193.38;110268;1244;62827;-68
2023/09/23 02:15:17;;;;;;;13.50;12.20;;;;;;;16.87;100.00;98194.66;110298;1244;59968;-68
2023/09/23 02:17:47;;;;;;;12.20;11.10;;;;;;;16.83;100.00;98203.30;110323;1245;59876;-68
2023/09/23 02:20:19;;;;;;;12.00;10.80;;;;;;;16.81;100.00;98213.59;110290;1244;65624;-68
2023/09/23 02:22:47;;;;;;;14.70;13.40;;;;;;;16.80;100.00;98228.06;109787;1244;59843;-68
2023/09/23 02:25:14;;;;;;;14.30;13.00;;;;;;;16.80;100.00;98237.59;110278;1245;64123;-69
2023/09/23 02:27:41;;;;;;;13.80;12.50;;;;;;;16.77;100.00;98236.19;110246;1244;59757;-68
2023/09/23 02:30:10;;;;;;;13.10;11.90;;;;;;;16.73;100.00;98234.81;110302;1244;59872;-68
2023/09/23 02:32:41;;;;;;;14.10;12.80;;;;;;;16.66;100.00;98233.42;110301;1244;66886;-68
2023/09/23 02:35:12;;;;;;;13.10;11.80;;;;;;;16.64;100.00;98226.95;110303;1245;59748;-68
2023/09/23 02:37:40;;;;;;;13.80;12.70;;;;;;;16.62;100.00;98229.30;110272;1244;62500;-69
2023/09/23 02:40:12;;;;;;;11.10;10.00;;;;;;;16.58;100.00;98223.70;110277;1244;59733;-68
2023/09/23 02:42:40;;;;;;;10.10;9.00;;;;;;;16.51;100.00;98231.52;110007;1245;60153;-69
2023/09/23 02:45:12;;;;;;;9.40;8.50;;;;;;;16.45;100.00;98237.24;109839;1244;66860;-69
2023/09/23 02:47:39;;;;;;;8.90;8.10;;;;;;;16.40;100.00;98239.70;110272;1245;61372;-69
2023/09/23 02:50:10;;;;;;;8.90;7.90;;;;;;;16.38;100.00;98242.55;110065;1244;64040;-68
2023/09/23 02:52:37;;;;;;;8.70;7.90;;;;;;;16.39;100.00;98247.19;110309;1245;59794;-69
2023/09/23 02:55:07;;;;;;;7.20;6.50;;;;;;;16.37;100.00;98258.60;110299;1245;59873;-69
2023/09/23 02:57:36;;;;;;;;;;;;;;;16.36;100.00;98266.45;109842;1245;67244;-69
2023/09/23 03:00:17;;;;;;;7.50;6.40;;;;;;;16.32;100.00;98261.67;110318;1245;60183;-69
2023/09/23 03:02:45;;;;;;;6.90;6.30;;;;;;;16.29;100.00;98258.98;109838;1244;64276;-69
2023/09/23 03:05:16;;;;;;;6.60;6.00;;;;;;;16.27;100.00;98257.52;110267;1244;59819;-69
2023/09/23 03:07:48;;;;;;;5.80;5.30;;;;;;;16.24;100.00;98260.13;110027;1244;60192;-69
2023/09/23 03:10:19;;;;;;;6.90;5.80;;;;;;;16.22;100.00;98256.59;110278;1249;66705;-69
2023/09/23 03:13:03;;;;;;;7.60;5.90;;;;;;;16.19;100.00;98250.80;110296;1248;60098;-69
2023/09/23 03:15:34;;;;;;;5.70;5.20;;;;;;;16.15;100.00;98255.52;110269;1245;62854;-69
2023/09/23 03:18:01;;;;;;;6.00;5.50;;;;;;;16.12;100.00;98262.07;110270;1245;60063;-69
2023/09/23 03:20:27;;;;;;;6.50;6.00;;;;;;;16.10;100.00;98267.33;110235;1247;59829;-69
2023/09/23 03:22:54;;;;;;;6.80;6.30;;;;;;;16.08;100.00;98274.13;110293;1245;59842;-69
2023/09/23 03:25:20;;;;;;;5.90;5.40;;;;;;;16.07;100.00;98284.98;110299;1249;59778;-69
2023/09/23 03:27:48;;;;;;;5.20;4.70;;;;;;;16.07;100.00;98295.90;110295;1244;65595;-67
2023/09/23 03:30:16;;;;;;;4.10;3.80;;;;;;;16.06;100.00;98298.04;110294;1245;59827;-67
2023/09/23 03:32:45;;;;;;;4.80;4.10;;;;;;;16.05;100.00;98301.52;110286;1244;59852;-67
2023/09/23 03:35:17;;;;;;;4.40;4.10;;;;;;;16.05;100.00;98303.28;110310;1245;66541;-67
2023/09/23 03:37:49;;;;;;;6.20;5.60;;;;;;;16.06;100.00;98302.99;110344;1244;60241;-67
2023/09/23 03:40:24;;;;;;;6.10;5.50;;;;;;;16.07;100.00;98305.05;110302;1244;63748;-67
2023/09/23 03:42:50;;;;;;;8.00;7.40;;;;;;;16.08;100.00;98307.50;110255;1245;59758;-67
2023/09/23 03:45:17;;;;;;;9.30;8.40;;;;;;;16.07;100.00;98304.91;110300;1244;59756;-68
2023/09/23 03:47:45;;;;;;;12.80;11.70;;;;;;;16.06;100.00;98307.66;110280;1244;65284;-68
2023/09/23 03:50:15;;;;;;;13.20;11.90;;;;;;;16.06;100.00;98310.02;110328;1245;60128;-68
2023/09/23 03:52:42;;;;;;;12.80;11.70;;;;;;;16.07;100.00;98319.12;110264;1245;63776;-68
2023/09/23 03:55:11;;;;;;;12.70;11.70;;;;;;;16.06;100.00;98309.86;110266;1244;59767;-68
2023/09/23 03:57:38;;;;;;;13.70;12.50;;;;;;;16.03;100.00;98314.44;110268;1244;59814;-68
2023/09/23 04:00:16;;;;;;;12.60;11.60;;;;;;;16.00;100.00;98317.07;110269;1244;66122;-68
2023/09/23 04:02:47;;;;;;;13.80;12.50;;;;;;;15.97;100.00;98306.05;110306;1244;60087;-68
2023/09/23 04:05:14;;;;;;;14.10;12.90;;;;;;;15.95;100.00;98300.22;109804;1244;65944;-68
2023/09/23 04:07:46;;;;;;;13.30;12.10;;;;;;;15.92;100.00;98287.90;110283;1244;59736;-68
2023/09/23 04:10:12;;;;;;;14.40;13.10;;;;;;;15.90;100.00;98283.89;110272;1244;59863;-68
2023/09/23 04:12:41;;;;;;;13.00;11.80;;;;;;;15.88;100.00;98289.38;110056;1244;60416;-68
2023/09/23 04:15:08;;;;;;;14.10;12.90;;;;;;;15.89;100.00;98290.27;110309;1244;60747;-68
2023/09/23 04:17:35;;;;;;;13.20;12.00;;;;;;;15.91;100.00;98299.38;110273;1244;62836;-68
2023/09/23 04:20:03;;;;;;;14.10;12.60;;;;;;;15.92;100.00;98310.48;110019;1244;59754;-68
2023/09/23 04:22:30;;;;;;;14.10;12.90;;;;;;;15.93;100.00;98314.15;110272;1245;59833;-68
2023/09/23 04:24:56;;;;;;;12.80;11.70;;;;;;;15.94;100.00;98310.16;110295;1244;59841;-68
2023/09/23 04:27:23;;;;;;;12.10;11.00;;;;;;;15.95;100.00;98310.77;110322;1244;59766;-68
2023/09/23 04:29:50;;;;;;;14.80;13.50;;;;;;;15.96;100.00;98314.05;110283;1244;59985;-68
2023/09/23 04:32:17;;;;;;;16.80;15.10;;;;;;;15.97;100.00;98318.98;110261;1244;60027;-68
2023/09/23 04:34:45;;;;;;;16.90;15.50;;;;;;;15.96;100.00;98316.37;110294;1244;59818;-68
2023/09/23 04:37:12;;;;;;;15.00;13.60;;;;;;;15.96;100.00;98317.61;109928;1244;67297;-68
2023/09/23 04:39:38;;;;;;;12.90;11.70;;;;;;;15.97;100.00;98317.71;110299;1244;60165;-68
2023/09/23 04:42:05;;;;;;;12.00;11.00;;;;;;;15.97;100.00;98315.36;110320;1244;59827;-68
2023/09/23 04:44:32;;;;;;;11.00;10.00;;;;;;;15.98;100.00;98317.25;110267;1244;60111;-68
2023/09/23 04:46:58;;;;;;;11.60;10.60;;;;;;;16.00;100.00;98313.48;110282;1244;59665;-68
2023/09/23 04:49:25;;;;;;;10.90;9.80;;;;;;;16.02;100.00;98310.91;110321;1244;60766;-68
2023/09/23 04:51:51;;;;;;;10.50;9.50;;;;;;;16.03;100.00;98309.27;110295;1244;59803;-68
2023/09/23 04:54:18;;;;;;;10.70;9.70;;;;;;;16.02;100.00;98309.16;110303;1244;64096;-68
2023/09/23 04:56:45;;;;;;;11.10;10.10;;;;;;;16.00;100.00;98313.24;110268;1244;59795;-68
2023/09/23 04:59:12;;;;;;;13.50;12.20;;;;;;;15.98;100.00;98322.58;110231;1244;59759;-68
2023/09/23 05:01:38;;;;;;;9.80;8.90;;;;;;;15.98;100.00;98340.55;110306;1244;66024;-68
2023/09/23 05:04:06;;;;;;;10.50;9.60;;;;;;;15.98;100.00;98367.39;110311;1244;59708;-68
2023/09/23 05:06:34;;;;;;;12.00;10.40;;;;;;;15.96;100.00;98385.22;110344;1244;62501;-69
2023/09/23 05:09:01;;;;;;;14.30;13.00;;;;;;;15.89;100.00;98380.73;110292;1244;59886;-70
2023/09/23 05:11:28;;;;;;;13.60;12.30;;;;;;;15.80;100.00;98357.36;110281;1244;59779;-69
2023/09/23 05:13:54;;;;;;;16.20;14.60;;;;;;;15.75;100.00;98355.89;110239;1248;59800;-69
2023/09/23 05:16:22;;;;;;;16.10;14.60;;;;;;;15.72;100.00;98354.77;110313;1244;59738;-69
2023/09/23 05:18:49;;;;;;;15.20;13.30;;;;;;;15.69;100.00;98356.48;110301;1244;64111;-69
2023/09/23 05:21:18;;;;;;;14.90;13.50;;;;;;;15.66;100.00;98352.66;110262;1244;59755;-68
2023/09/23 05:23:48;;;;;;;14.50;13.00;;;;;;;15.61;100.00;98351.33;110336;1244;60062;-69
2023/09/23 05:26:16;;;;;;;;;;;;;;;15.56;100.00;98372.20;110318;1244;68020;-68
2023/09/23 05:28:43;;;;;;;13.90;11.80;;;;;;;15.54;100.00;98376.20;110282;1244;60161;-68
2023/09/23 05:31:09;;;;;;;14.20;12.90;;;;;;;15.52;100.00;98374.22;110306;1244;64083;-68
2023/09/23 05:33:37;;;;;;;14.10;12.60;;;;;;;15.52;100.00;98368.48;110269;1244;59666;-68
2023/09/23 05:36:04;;;;;;;13.10;11.90;;;;;;;15.53;100.00;98380.75;110289;1244;59977;-69
2023/09/23 05:38:31;;;;;;;12.50;11.20;;;;;;;15.53;100.00;98392.23;110358;1244;65618;-69
2023/09/23 05:40:58;;;;;;;13.10;12.00;;;;;;;15.54;100.00;98395.02;110274;1244;60646;-69
2023/09/23 05:43:24;;;;;;;11.10;10.10;;;;;;;15.55;100.00;98394.57;110276;1244;60687;-69
2023/09/23 05:45:51;;;;;;;11.40;10.50;;;;;;;15.54;100.00;98401.08;110251;1244;59891;-69
2023/09/23 05:48:17;;;;;;;12.10;11.10;;;;;;;15.54;100.00;98405.05;110267;1244;59875;-69
2023/09/23 05:50:44;;;;;;;13.30;12.10;;;;;;;15.54;100.00;98401.41;110289;1244;59827;-68
2023/09/23 05:53:10;;;;;;;12.60;11.60;;;;;;;15.55;100.00;98395.21;109788;1244;59926;-69
2023/09/23 05:55:37;;;;;;;11.50;10.60;;;;;;;15.56;100.00;98390.31;110302;1244;59792;-69
2023/09/23 05:58:03;;;;;;;11.80;10.80;;;;;;;15.55;100.00;98401.67;110242;1244;59812;-73
2023/09/23 06:00:30;;;;;;;12.10;11.10;;;;;;;15.56;100.00;98416.61;110304;1244;59888;-75
2023/09/23 06:02:56;;;;;;;11.60;10.50;;;;;;;15.58;100.00;98425.23;110337;1244;66901;-74
2023/09/23 06:05:23;;;;;;;12.10;11.00;;;;;;;15.57;100.00;98430.52;110271;1244;59777;-74
2023/09/23 06:07:50;;;;;;;11.20;10.20;;;;;;;15.56;100.00;98433.12;110317;1244;64029;-74
2023/09/23 06:10:18;;;;;;;10.50;9.70;;;;;;;15.55;100.00;98428.17;110271;1244;59795;-74
2023/09/23 06:12:45;;;;;;;10.80;9.90;;;;;;;15.55;100.00;98430.63;110297;1244;59919;-75
2023/09/23 06:15:11;;;;;;;9.70;8.90;;;;;;;15.56;100.00;98434.20;110294;1248;60024;-75
2023/09/23 06:17:38;;;;;;;9.00;8.30;;;;;;;15.56;100.00;98437.39;110279;1244;59738;-75
2023/09/23 06:20:05;;;;;;;9.80;8.90;;;;;;;15.55;100.00;98435.66;110284;1244;59932;-74
2023/09/23 06:22:34;;;;;;;9.60;8.80;;;;;;;15.54;100.00;98430.66;110255;1245;59836;-74
2023/09/23 16:53:30;;;;;;;14.10;12.70;;;;;;;15.84;100.00;98974.70;109489;1261;63984;31
2023/09/23 16:55:56;;;;;;;13.40;12.10;;;;;;;15.83;100.00;98986.58;107613;1244;60429;-67
2023/09/23 16:58:22;;;;;;;13.40;12.10;;;;;;;15.82;100.00;98993.73;107505;1247;60983;-67
2023/09/23 17:00:48;;;;;;;12.40;11.20;;;;;;;15.79;100.00;98995.67;107472;1247;60621;-68
2023/09/23 17:03:14;;;;;;;13.40;12.20;;;;;;;15.78;100.00;99001.57;107576;1247;60567;-68
2023/09/23 17:05:40;;;;;;;13.00;11.90;;;;;;;15.75;100.00;99007.73;107614;1244;60543;-68
2023/09/23 17:08:06;;;;;;;14.40;13.00;;;;;;;15.73;100.00;99014.34;107684;1244;60544;-68
2023/09/23 17:10:33;;;;;;;13.20;11.90;;;;;;;15.71;100.00;99016.02;107694;1244;60468;-67
2023/09/23 17:12:58;;;;;;;13.80;12.00;;;;;;;15.69;100.00;99011.30;107696;1244;60912;-68
2023/09/23 17:15:24;;;;;;;13.90;12.70;;;;;;;15.68;100.00;99006.55;107576;1244;60529;-67
2023/09/23 17:17:50;;;;;;;14.30;13.00;;;;;;;15.67;100.00;99006.23;107574;1247;60447;-68
2023/09/23 17:20:16;;;;;;;14.40;13.00;;;;;;;15.67;100.00;99008.41;107433;1249;60513;-68
2023/09/23 17:22:42;;;;;;;14.70;13.30;;;;;;;15.65;100.00;99013.59;107513;1244;60555;-68
2023/09/23 17:25:08;;;;;;;15.00;13.50;;;;;;;15.63;100.00;99017.15;107307;1245;60649;-68
2023/09/23 17:27:34;;;;;;;17.90;15.20;;;;;;;15.62;100.00;99020.17;107117;1252;60562;-68
2023/09/23 17:30:04;;;;;;;18.80;16.40;;;;;;;15.58;100.00;99020.30;107717;1247;60472;-69
2023/09/23 17:32:30;;;;;;;17.80;15.30;;;;;;;15.55;100.00;99023.22;107732;1248;60968;-69
2023/09/23 17:34:56;;;;;;;17.90;16.10;;;;;;;15.54;100.00;99023.16;108703;1236;60490;-68
2023/09/23 17:37:22;;;;;;;21.60;19.60;;;;;;;15.54;100.00;99026.76;108523;1234;60423;-70
2023/09/23 17:39:47;;;;;;;19.60;17.70;;;;;;;15.53;100.00;99029.89;108627;1236;60458;-68
2023/09/23 17:42:13;;;;;;;18.70;17.00;;;;;;;15.51;100.00;99032.32;108617;1234;60516;-68
2023/09/23 17:44:39;;;;;;;17.10;15.50;;;;;;;15.50;100.00;99041.06;108711;1234;60490;-69
2023/09/23 17:47:05;;;;;;;17.90;16.00;;;;;;;15.47;100.00;99048.98;108591;1235;60475;-69
2023/09/23 17:49:31;;;;;;;19.50;17.10;;;;;;;15.45;100.00;99058.87;108577;1234;64009;-68
2023/09/23 17:51:56;;;;;;;19.70;17.90;;;;;;;15.43;100.00;99065.64;108485;1240;60590;-68
2023/09/23 17:54:23;;;;;;;20.70;17.90;;;;;;;15.42;100.00;99064.88;108472;1237;60536;-67
2023/09/23 17:56:48;;;;;;;19.70;17.80;;;;;;;15.40;100.00;99066.64;108362;1237;60583;-68
2023/09/23 17:59:14;;;;;;;19.50;17.60;;;;;;;15.38;100.00;99067.11;108483;1236;60493;-67
2023/09/23 18:01:40;;;;;;;19.40;17.50;;;;;;;15.36;100.00;99073.88;108525;1236;60531;-67
2023/09/23 18:04:06;;;;;;;20.60;18.60;;;;;;;15.35;100.00;99072.55;108543;1234;61108;-68
2023/09/23 18:06:32;;;;;;;22.60;18.90;;;;;;;15.33;100.00;99067.54;108530;1236;66829;-67
2023/09/23 18:08:58;;;;;;;23.00;18.30;;;;;;;15.35;100.00;99070.83;108411;1236;60440;-67
2023/09/23 18:11:24;;;;;;;20.90;18.90;;;;;;;15.35;100.00;99076.71;108518;1232;60573;-68
2023/09/23 18:13:50;;;;;;;21.30;19.10;;;;;;;15.34;100.00;99081.56;108532;1232;60455;-68
2023/09/23 18:16:15;;;;;;;21.20;19.00;;;;;;;15.34;100.00;99085.55;108536;1236;60521;-68
2023/09/23 18:18:45;;;;;;;23.90;21.40;;;;;;;15.34;100.00;99090.55;108523;1237;60711;-68
2023/09/23 18:30:13;;;;;;;24.70;21.30;;;;;;;15.36;100.00;99113.65;102423;1289;600975;-68
2023/09/23 18:32:40;;;;;;;24.50;22.10;;;;;;;15.33;100.00;99117.68;104807;1269;59286;-68
2023/09/23 18:35:07;;;;;;;23.50;21.10;;;;;;;15.31;100.00;99122.48;104840;1266;60832;-68
2023/09/23 18:37:33;;;;;;;23.70;21.40;;;;;;;15.31;100.00;99123.03;104738;1269;64307;-68
2023/09/23 18:40:00;;;;;;;23.80;21.30;;;;;;;15.30;100.00;99122.98;104662;1272;59342;-69
2023/09/23 18:42:26;;;;;;;24.20;21.70;;;;;;;15.28;100.00;99123.26;104913;1269;64552;-67
2023/09/23 18:44:53;;;;;;;22.20;19.70;;;;;;;15.27;100.00;99120.88;104862;1266;150321;-68
2023/09/23 18:47:20;;;;;;;22.20;19.70;;;;;;;15.25;100.00;99123.52;104979;1261;59359;-68
2023/09/23 18:49:47;;;;;;;22.40;20.30;;;;;;;15.23;100.00;99128.59;104967;1266;64194;-67
2023/09/23 18:52:13;;;;;;;22.90;20.70;;;;;;;15.21;100.00;99134.25;104977;1263;60881;-68
2023/09/23 18:54:40;;;;;;;24.30;22.00;;;;;;;15.21;100.00;99136.63;105037;1264;64822;-69
2023/09/23 18:57:07;;;;;;;23.30;20.90;;;;;;;15.20;100.00;99142.64;105115;1261;59670;-68
2023/09/23 18:59:33;;;;;;;23.70;21.20;;;;;;;15.18;100.00;99150.63;105066;1266;60045;-68
2023/09/23 19:02:00;;;;;;;23.00;20.60;;;;;;;15.17;100.00;99153.76;104955;1262;59785;-68
2023/09/23 19:04:27;;;;;;;21.90;19.50;;;;;;;15.15;100.00;99156.55;104926;1266;59704;-68
2023/09/23 19:06:53;;;;;;;23.00;20.60;;;;;;;15.14;100.00;99152.55;104942;1263;64694;-68
2023/09/23 19:09:20;;;;;;;23.20;20.80;;;;;;;15.13;100.00;99148.89;104962;1262;59672;-69
2023/09/23 19:11:48;;;;;;;25.30;21.50;;;;;;;15.12;100.00;99144.11;105178;1265;59686;-69
2023/09/23 19:14:14;;;;;;;23.60;21.10;;;;;;;15.12;100.00;99140.98;105209;1263;65209;-68
2023/09/23 19:16:41;;;;;;;23.50;21.10;;;;;;;15.12;100.00;99143.09;105196;1266;59715;-68
2023/09/23 19:19:07;;;;;;;23.60;21.00;;;;;;;15.13;100.00;99150.52;105019;1263;59676;-67
2023/09/23 19:21:34;;;;;;;26.20;21.80;;;;;;;15.13;100.00;99154.82;104989;1263;59551;-69
2023/09/23 19:24:01;;;;;;;27.40;22.20;;;;;;;15.13;100.00;99158.23;105178;1263;59711;-68
2023/09/23 19:26:27;;;;;;;23.50;21.00;;;;;;;15.12;100.00;99151.46;105302;1262;65078;-68
2023/09/23 19:28:54;;;;;;;26.20;22.00;;;;;;;15.11;100.00;99149.77;105189;1267;59638;-71
2023/09/23 19:31:21;;;;;;;24.60;21.10;;;;;;;15.10;100.00;99155.08;104991;1266;64196;-68
2023/09/23 19:33:49;;;;;;;29.50;23.70;;;;;;;15.09;100.00;99151.87;105022;1263;59554;-68
2023/09/23 19:36:18;;;;;;;27.00;23.50;;;;;;;15.09;100.00;99147.61;105071;1263;59641;-69
2023/09/23 19:38:45;;;;;;;28.60;24.30;;;;;;;15.08;100.00;99145.54;105222;1265;63807;-68
2023/09/23 19:41:12;;;;;;;33.20;26.30;;;;;;;15.08;100.00;99147.90;104976;1270;59638;-69
2023/09/23 19:43:38;;;;;;;28.10;25.10;;;;;;;15.07;100.00;99156.55;105177;1263;59721;-68
2023/09/23 19:46:05;;;;;;;30.40;25.40;;;;;;;15.07;100.00;99154.94;105177;1265;59714;-68
2023/09/23 19:48:32;;;;;;;36.90;28.00;;;;;;;15.06;100.00;99154.48;105021;1266;59630;-68
2023/09/23 19:50:59;;;;;;;34.70;28.30;;;;;;;15.06;100.00;99149.17;105180;1265;65086;-68
2023/09/23 19:53:26;;;;;;;32.60;28.00;;;;;;;15.05;100.00;99144.94;105165;1266;60451;-68
2023/09/23 19:55:53;;;;;;;35.10;28.30;;;;;;;15.04;100.00;99141.43;105171;1266;64608;-68
2023/09/23 19:58:20;;;;;;;31.10;27.80;;;;;;;15.03;100.00;99142.72;105180;1266;59570;-68
2023/09/23 20:00:49;;;;;;;31.10;26.50;;;;;;;15.04;100.00;99147.35;104994;1266;59645;-68
2023/09/23 20:03:17;;;;;;;28.80;24.90;;;;;;;15.03;100.00;99151.38;104969;1268;64643;-68
2023/09/23 20:05:45;;;;;;;28.00;24.20;;;;;;;15.01;100.00;99151.71;105192;1263;60558;-68
2023/09/23 20:08:13;;;;;;;28.60;25.60;;;;;;;15.00;100.00;99150.88;105237;1265;64705;-68
2023/09/23 20:10:41;;;;;;;31.90;27.70;;;;;;;14.99;100.00;99149.71;105210;1264;59645;-68
2023/09/23 20:13:10;;;;;;;31.70;28.30;;;;;;;14.98;100.00;99152.29;105194;1261;59640;-68
2023/09/23 20:15:37;;;;;;;32.30;28.50;;;;;;;14.98;100.00;99154.23;104998;1267;64746;-68
2023/09/23 20:18:06;;;;;;;36.20;31.60;;;;;;;14.98;100.00;99147.45;104970;1264;61767;-68
2023/09/23 20:20:34;;;;;;;35.60;29.90;;;;;;;14.98;100.00;99146.73;104906;1261;64216;-68
2023/09/23 20:23:04;;;;;;;38.90;30.80;;;;;;;14.98;100.00;99149.84;104969;1266;59631;-68
2023/09/23 20:25:31;;;;;;;34.70;30.30;;;;;;;14.98;100.00;99151.80;105013;1264;59679;-68
2023/09/23 20:27:58;;;;;;;38.90;29.50;;;;;;;14.96;100.00;99150.48;104915;1266;65047;-68
2023/09/23 20:30:25;;;;;;;37.70;31.70;;;;;;;14.96;100.00;99154.63;104926;1267;59934;-67
2023/09/23 20:32:52;;;;;;;32.10;28.10;;;;;;;14.96;100.00;99156.44;104873;1270;64022;-68
2023/09/23 20:35:20;;;;;;;31.80;27.70;;;;;;;14.97;100.00;99155.99;105140;1266;59641;-68
2023/09/23 20:37:46;;;;;;;32.10;27.30;;;;;;;14.97;100.00;99157.44;105120;1266;59568;-68
2023/09/23 20:40:14;;;;;;;29.90;24.90;;;;;;;14.96;100.00;99160.35;105090;1265;64063;-68
2023/09/23 20:42:40;;;;;;;30.00;26.90;;;;;;;14.96;100.00;99161.93;105077;1262;61053;-68
2023/09/23 20:45:08;;;;;;;29.10;25.40;;;;;;;14.97;100.00;99167.83;105227;1266;64378;-69
2023/09/23 20:47:35;;;;;;;25.60;22.90;;;;;;;14.96;100.00;99172.85;105166;1265;59654;-68
2023/09/23 20:50:05;;;;;;;27.10;24.30;;;;;;;14.96;100.00;99172.38;105202;1264;59641;-68
2023/09/23 20:52:32;;;;;;;28.40;24.80;;;;;;;14.96;100.00;99182.92;104997;1266;63206;-70
2023/09/23 20:54:59;;;;;;;28.80;24.60;;;;;;;14.94;100.00;99191.95;105233;1261;60606;-68
2023/09/23 20:57:29;;;;;;;29.50;26.30;;;;;;;14.94;100.00;99193.94;105146;1265;59666;-69
2023/09/23 20:59:56;;;;;;;33.40;28.10;;;;;;;14.93;100.00;99190.96;105028;1261;59650;-69
2023/09/23 21:02:22;;;;;;;33.70;30.10;;;;;;;14.93;100.00;99186.86;105215;1265;59640;-68
2023/09/23 21:04:48;;;;;;;33.80;29.20;;;;;;;14.95;100.00;99192.45;105191;1265;59616;-69
2023/09/23 21:07:17;;;;;;;36.30;28.70;;;;;;;14.96;100.00;99201.35;108946;1261;57390;-68
2023/09/23 21:09:43;;;;;;;35.40;29.50;;;;;;;14.97;100.00;99202.35;108933;1260;62969;-68
2023/09/23 21:12:10;;;;;;;33.20;28.50;;;;;;;14.97;100.00;99208.80;108749;1263;57353;-67
2023/09/23 21:14:36;;;;;;;35.00;31.00;;;;;;;14.98;100.00;99215.86;108940;1260;57551;-66
2023/09/23 21:17:03;;;;;;;42.80;34.70;;;;;;;14.99;100.00;99218.45;108933;1260;64145;-68
2023/09/23 21:19:29;;;;;;;37.00;31.60;;;;;;;15.00;100.00;99219.27;108944;1261;57341;-67
2023/09/23 21:21:55;;;;;;;34.80;30.90;;;;;;;15.00;100.00;99223.48;108995;1260;57615;-67
2023/09/23 21:24:22;;;;;;;35.90;30.90;;;;;;;15.01;100.00;99225.25;109000;1260;57362;-68
2023/09/23 21:26:48;;;;;;;35.10;31.30;;;;;;;15.01;100.00;99223.98;108981;1260;57468;-68
2023/09/23 21:29:15;;;;;;;35.60;30.90;;;;;;;15.01;100.00;99228.27;108988;1259;57516;-67
2023/09/23 21:31:42;;;;;;;36.10;28.40;;;;;;;15.02;100.00;99227.64;109022;1260;60026;-68
2023/09/23 21:34:09;;;;;;;36.90;30.20;;;;;;;15.03;100.00;99230.59;108983;1260;57428;-67
2023/09/23 21:36:38;;;;;;;37.70;30.20;;;;;;;15.05;100.00;99237.63;109007;1260;57392;-67
2023/09/23 21:39:06;;;;;;;35.20;30.20;;;;;;;15.06;100.00;99238.61;109009;1260;57532;-67
2023/09/23 21:41:33;;;;;;;33.90;30.30;;;;;;;15.07;100.00;99244.39;108938;1260;64431;-67
2023/09/23 21:43:59;;;;;;;33.00;28.80;;;;;;;15.09;100.00;99250.02;109033;1260;69724;-68